sensor_id;sensor_type;location;lat;lon;timestamp;temperature;humidity
1411;DHT22;700;51.906;8.404;2023-11-19T00:00:11;11.40;99.90
1411;DHT22;700;51.906;8.404;2023-11-19T00:05:12;11.40;99.90
1411;DHT22;700;51.906;8.404;2023-11-19T00:10:15;11.30;99.90
1411;DHT22;700;51.906;8.404;2023-11-19T00:15:21;11.30;99.90
1411;DHT22;700;51.906;8.404;2023-11-19T00:20:29;11.40;99.90
1411;DHT22;700;51.906;8.404;2023-11-19T00:25:29;11.30;99.90
1411;DHT22;700;51.906;8.404;2023-11-19T00:30:32;11.50;99.90
1411;DHT22;700;51.906;8.404;2023-11-19T00:35:35;11.60;99.90
1411;DHT22;700;51.906;8.404;2023-11-19T00:40:36;11.80;99.90
1411;DHT22;700;51.906;8.404;2023-11-19T00:45:36;11.80;99.90
1411;DHT22;700;51.906;8.404;2023-11-19T00:50:37;11.90;99.90
1411;DHT22;700;51.906;8.404;2023-11-19T00:55:38;11.70;99.90
1411;DHT22;700;51.906;8.404;2023-11-19T01:00:38;11.90;99.90
1411;DHT22;700;51.906;8.404;2023-11-19T01:05:39;12.00;99.90
1411;DHT22;700;51.906;8.404;2023-11-19T01:10:39;11.80;99.90
1411;DHT22;700;51.906;8.404;2023-11-19T01:15:42;11.90;99.90
1411;DHT22;700;51.906;8.404;2023-11-19T01:20:43;12.00;99.90
1411;DHT22;700;51.906;8.404;2023-11-19T01:25:44;12.00;99.90
1411;DHT22;700;51.906;8.404;2023-11-19T01:30:44;12.10;99.90
1411;DHT22;700;51.906;8.404;2023-11-19T01:35:45;12.10;99.90
1411;DHT22;700;51.906;8.404;2023-11-19T01:40:48;12.20;99.90
1411;DHT22;700;51.906;8.404;2023-11-19T01:45:49;12.10;99.90
1411;DHT22;700;51.906;8.404;2023-11-19T01:50:51;12.20;99.90
1411;DHT22;700;51.906;8.404;2023-11-19T01:55:52;12.30;99.90
1411;DHT22;700;51.906;8.404;2023-11-19T02:00:53;12.40;99.90
1411;DHT22;700;51.906;8.404;2023-11-19T02:05:56;12.30;99.90
1411;DHT22;700;51.906;8.404;2023-11-19T02:11:01;12.20;99.90
1411;DHT22;700;51.906;8.404;2023-11-19T02:16:07;12.30;99.90
1411;DHT22;700;51.906;8.404;2023-11-19T02:21:09;12.30;99.90
1411;DHT22;700;51.906;8.404;2023-11-19T02:31:26;12.40;99.90
1411;DHT22;700;51.906;8.404;2023-11-19T02:36:28;12.50;99.90
1411;DHT22;700;51.906;8.404;2023-11-19T02:41:28;12.60;99.90
1411;DHT22;700;51.906;8.404;2023-11-19T02:46:34;12.70;99.90
1411;DHT22;700;51.906;8.404;2023-11-19T02:51:37;12.80;99.90
1411;DHT22;700;51.906;8.404;2023-11-19T02:56:42;12.70;99.90
1411;DHT22;700;51.906;8.404;2023-11-19T03:01:50;13.00;99.90
1411;DHT22;700;51.906;8.404;2023-11-19T03:06:53;13.10;99.90
1411;DHT22;700;51.906;8.404;2023-11-19T03:11:56;13.20;99.90
1411;DHT22;700;51.906;8.404;2023-11-19T03:16:57;13.10;99.90
1411;DHT22;700;51.906;8.404;2023-11-19T03:21:57;13.20;99.90
1411;DHT22;700;51.906;8.404;2023-11-19T03:26:58;13.20;99.90
1411;DHT22;700;51.906;8.404;2023-11-19T03:32:01;13.30;99.90
1411;DHT22;700;51.906;8.404;2023-11-19T03:37:02;13.40;99.90
1411;DHT22;700;51.906;8.404;2023-11-19T03:42:03;13.60;99.90
1411;DHT22;700;51.906;8.404;2023-11-19T03:47:09;13.60;99.90
1411;DHT22;700;51.906;8.404;2023-11-19T03:52:13;13.80;99.90
1411;DHT22;700;51.906;8.404;2023-11-19T03:57:13;13.80;99.90
1411;DHT22;700;51.906;8.404;2023-11-19T04:02:18;13.90;99.90
1411;DHT22;700;51.906;8.404;2023-11-19T04:07:21;14.00;99.90
1411;DHT22;700;51.906;8.404;2023-11-19T04:12:22;14.00;99.90
1411;DHT22;700;51.906;8.404;2023-11-19T04:17:22;14.10;99.90
1411;DHT22;700;51.906;8.404;2023-11-19T04:22:23;14.10;99.90
1411;DHT22;700;51.906;8.404;2023-11-19T04:27:26;14.10;99.90
1411;DHT22;700;51.906;8.404;2023-11-19T04:32:30;14.30;99.90
1411;DHT22;700;51.906;8.404;2023-11-19T04:37:31;14.20;99.90
1411;DHT22;700;51.906;8.404;2023-11-19T04:42:33;14.20;99.90
1411;DHT22;700;51.906;8.404;2023-11-19T04:47:36;14.10;99.90
1411;DHT22;700;51.906;8.404;2023-11-19T04:52:38;14.20;99.90
1411;DHT22;700;51.906;8.404;2023-11-19T04:57:44;14.20;99.90
1411;DHT22;700;51.906;8.404;2023-11-19T05:02:50;14.20;99.90
1411;DHT22;700;51.906;8.404;2023-11-19T05:07:51;14.30;99.90
1411;DHT22;700;51.906;8.404;2023-11-19T05:12:51;14.20;99.90
1411;DHT22;700;51.906;8.404;2023-11-19T05:17:52;14.10;99.90
1411;DHT22;700;51.906;8.404;2023-11-19T05:22:53;14.00;99.90
1411;DHT22;700;51.906;8.404;2023-11-19T05:27:53;14.20;99.90
1411;DHT22;700;51.906;8.404;2023-11-19T05:32:56;14.00;99.90
1411;DHT22;700;51.906;8.404;2023-11-19T05:37:57;14.20;99.90
1411;DHT22;700;51.906;8.404;2023-11-19T05:43:01;14.20;99.90
1411;DHT22;700;51.906;8.404;2023-11-19T05:48:04;14.30;99.90
1411;DHT22;700;51.906;8.404;2023-11-19T05:53:05;14.30;99.90
1411;DHT22;700;51.906;8.404;2023-11-19T05:58:11;14.30;99.90
1411;DHT22;700;51.906;8.404;2023-11-19T06:03:17;14.20;99.90
1411;DHT22;700;51.906;8.404;2023-11-19T06:08:20;14.20;99.90
1411;DHT22;700;51.906;8.404;2023-11-19T06:13:21;13.90;99.90
1411;DHT22;700;51.906;8.404;2023-11-19T06:18:22;14.00;99.90
1411;DHT22;700;51.906;8.404;2023-11-19T06:23:25;14.10;99.90
1411;DHT22;700;51.906;8.404;2023-11-19T06:28:26;14.10;99.90
1411;DHT22;700;51.906;8.404;2023-11-19T06:33:29;14.10;99.90
1411;DHT22;700;51.906;8.404;2023-11-19T06:38:30;14.20;99.90
1411;DHT22;700;51.906;8.404;2023-11-19T06:43:31;14.30;99.90
1411;DHT22;700;51.906;8.404;2023-11-19T06:48:34;14.30;99.90
1411;DHT22;700;51.906;8.404;2023-11-19T06:53:34;14.20;99.90
1411;DHT22;700;51.906;8.404;2023-11-19T06:58:41;14.20;99.90
1411;DHT22;700;51.906;8.404;2023-11-19T07:03:42;14.00;99.90
1411;DHT22;700;51.906;8.404;2023-11-19T07:08:42;13.90;99.90
1411;DHT22;700;51.906;8.404;2023-11-19T07:13:46;14.10;99.90
1411;DHT22;700;51.906;8.404;2023-11-19T07:18:49;14.00;99.90
1411;DHT22;700;51.906;8.404;2023-11-19T07:23:50;13.90;99.90
1411;DHT22;700;51.906;8.404;2023-11-19T07:28:52;14.00;99.90
1411;DHT22;700;51.906;8.404;2023-11-19T07:33:52;14.10;99.90
1411;DHT22;700;51.906;8.404;2023-11-19T07:38:54;14.40;99.90
1411;DHT22;700;51.906;8.404;2023-11-19T07:43:58;14.20;99.90
1411;DHT22;700;51.906;8.404;2023-11-19T07:48:58;14.20;99.90
1411;DHT22;700;51.906;8.404;2023-11-19T07:54:01;14.40;99.90
1411;DHT22;700;51.906;8.404;2023-11-19T07:59:02;14.40;99.90
1411;DHT22;700;51.906;8.404;2023-11-19T08:04:05;14.40;99.90
1411;DHT22;700;51.906;8.404;2023-11-19T08:09:06;14.50;99.90
1411;DHT22;700;51.906;8.404;2023-11-19T08:14:09;14.40;99.90
1411;DHT22;700;51.906;8.404;2023-11-19T08:19:10;14.80;99.90
1411;DHT22;700;51.906;8.404;2023-11-19T08:24:13;14.90;99.90
1411;DHT22;700;51.906;8.404;2023-11-19T08:29:14;15.10;99.90
1411;DHT22;700;51.906;8.404;2023-11-19T08:34:17;14.90;99.90
1411;DHT22;700;51.906;8.404;2023-11-19T08:39:20;14.80;99.90
1411;DHT22;700;51.906;8.404;2023-11-19T08:44:26;15.00;99.90
1411;DHT22;700;51.906;8.404;2023-11-19T08:49:27;14.80;99.90
1411;DHT22;700;51.906;8.404;2023-11-19T08:54:30;15.20;99.90
1411;DHT22;700;51.906;8.404;2023-11-19T08:59:31;15.00;99.90
1411;DHT22;700;51.906;8.404;2023-11-19T09:04:31;14.70;99.90
1411;DHT22;700;51.906;8.404;2023-11-19T09:09:32;14.60;99.90
1411;DHT22;700;51.906;8.404;2023-11-19T09:14:36;14.70;99.90
1411;DHT22;700;51.906;8.404;2023-11-19T09:19:36;14.70;99.90
1411;DHT22;700;51.906;8.404;2023-11-19T09:24:39;14.40;99.90
1411;DHT22;700;51.906;8.404;2023-11-19T09:29:44;14.70;99.90
1411;DHT22;700;51.906;8.404;2023-11-19T09:34:47;14.90;99.90
1411;DHT22;700;51.906;8.404;2023-11-19T09:39:47;15.00;99.90
1411;DHT22;700;51.906;8.404;2023-11-19T09:44:48;14.70;99.90
1411;DHT22;700;51.906;8.404;2023-11-19T09:49:49;15.30;99.90
1411;DHT22;700;51.906;8.404;2023-11-19T09:54:50;16.20;99.90
1411;DHT22;700;51.906;8.404;2023-11-19T09:59:51;15.90;99.90
1411;DHT22;700;51.906;8.404;2023-11-19T10:04:53;15.90;99.90
1411;DHT22;700;51.906;8.404;2023-11-19T10:09:55;15.80;99.90
1411;DHT22;700;51.906;8.404;2023-11-19T10:14:59;15.70;99.90
1411;DHT22;700;51.906;8.404;2023-11-19T10:20:00;15.90;99.90
1411;DHT22;700;51.906;8.404;2023-11-19T10:25:01;16.00;99.90
1411;DHT22;700;51.906;8.404;2023-11-19T10:30:02;15.60;99.90
1411;DHT22;700;51.906;8.404;2023-11-19T10:35:06;15.80;99.90
1411;DHT22;700;51.906;8.404;2023-11-19T10:40:07;15.70;99.90
1411;DHT22;700;51.906;8.404;2023-11-19T10:45:23;15.60;99.90
1411;DHT22;700;51.906;8.404;2023-11-19T10:50:26;16.10;99.90
1411;DHT22;700;51.906;8.404;2023-11-19T10:55:36;16.20;99.90
1411;DHT22;700;51.906;8.404;2023-11-19T11:00:41;15.90;99.90
1411;DHT22;700;51.906;8.404;2023-11-19T11:05:47;15.90;99.90
1411;DHT22;700;51.906;8.404;2023-11-19T11:10:52;15.90;99.90
1411;DHT22;700;51.906;8.404;2023-11-19T11:15:57;15.50;99.90
1411;DHT22;700;51.906;8.404;2023-11-19T11:21:10;15.80;99.90
1411;DHT22;700;51.906;8.404;2023-11-19T11:37:30;15.50;99.90
1411;DHT22;700;51.906;8.404;2023-11-19T11:42:33;15.30;99.90
1411;DHT22;700;51.906;8.404;2023-11-19T11:57:59;15.00;99.90
1411;DHT22;700;51.906;8.404;2023-11-19T12:03:01;15.10;99.90
1411;DHT22;700;51.906;8.404;2023-11-19T12:08:03;15.20;99.90
1411;DHT22;700;51.906;8.404;2023-11-19T12:13:06;15.20;99.90
1411;DHT22;700;51.906;8.404;2023-11-19T12:18:09;15.30;99.90
1411;DHT22;700;51.906;8.404;2023-11-19T12:23:10;15.40;99.90
1411;DHT22;700;51.906;8.404;2023-11-19T12:28:15;15.50;99.90
1411;DHT22;700;51.906;8.404;2023-11-19T12:33:20;16.20;99.90
1411;DHT22;700;51.906;8.404;2023-11-19T12:38:25;17.30;99.90
1411;DHT22;700;51.906;8.404;2023-11-19T12:43:28;17.10;99.90
1411;DHT22;700;51.906;8.404;2023-11-19T12:48:29;16.70;99.90
1411;DHT22;700;51.906;8.404;2023-11-19T12:53:50;16.30;99.90
1411;DHT22;700;51.906;8.404;2023-11-19T12:58:54;15.80;99.90
1411;DHT22;700;51.906;8.404;2023-11-19T13:03:55;15.80;99.90
1411;DHT22;700;51.906;8.404;2023-11-19T13:08:55;15.50;99.90
1411;DHT22;700;51.906;8.404;2023-11-19T13:13:57;15.50;99.90
1411;DHT22;700;51.906;8.404;2023-11-19T13:18:58;15.70;99.90
1411;DHT22;700;51.906;8.404;2023-11-19T13:24:00;16.20;99.90
1411;DHT22;700;51.906;8.404;2023-11-19T13:29:01;17.00;99.90
1411;DHT22;700;51.906;8.404;2023-11-19T13:34:01;17.90;99.90
1411;DHT22;700;51.906;8.404;2023-11-19T13:39:02;19.20;99.90
1411;DHT22;700;51.906;8.404;2023-11-19T13:44:08;18.70;99.90
1411;DHT22;700;51.906;8.404;2023-11-19T13:49:11;17.60;99.90
1411;DHT22;700;51.906;8.404;2023-11-19T13:54:11;16.70;99.90
1411;DHT22;700;51.906;8.404;2023-11-19T13:59:14;16.90;99.90
1411;DHT22;700;51.906;8.404;2023-11-19T14:04:17;16.40;99.90
1411;DHT22;700;51.906;8.404;2023-11-19T14:09:18;15.90;99.90
1411;DHT22;700;51.906;8.404;2023-11-19T14:14:21;15.70;99.90
1411;DHT22;700;51.906;8.404;2023-11-19T14:19:22;15.80;99.90
1411;DHT22;700;51.906;8.404;2023-11-19T14:24:22;15.10;99.90
1411;DHT22;700;51.906;8.404;2023-11-19T14:29:24;15.20;99.90
1411;DHT22;700;51.906;8.404;2023-11-19T14:34:34;15.00;99.90
1411;DHT22;700;51.906;8.404;2023-11-19T14:39:35;14.70;99.90
1411;DHT22;700;51.906;8.404;2023-11-19T14:44:35;14.70;99.90
1411;DHT22;700;51.906;8.404;2023-11-19T14:49:36;15.00;99.90
1411;DHT22;700;51.906;8.404;2023-11-19T14:54:37;14.90;99.90
1411;DHT22;700;51.906;8.404;2023-11-19T14:59:41;15.00;99.90
1411;DHT22;700;51.906;8.404;2023-11-19T15:04:44;14.90;99.90
1411;DHT22;700;51.906;8.404;2023-11-19T15:09:47;14.80;99.90
1411;DHT22;700;51.906;8.404;2023-11-19T15:14:50;14.70;99.90
1411;DHT22;700;51.906;8.404;2023-11-19T15:19:53;14.70;99.90
1411;DHT22;700;51.906;8.404;2023-11-19T15:24:54;14.70;99.90
1411;DHT22;700;51.906;8.404;2023-11-19T15:29:56;14.60;99.90
1411;DHT22;700;51.906;8.404;2023-11-19T15:34:58;14.40;99.90
1411;DHT22;700;51.906;8.404;2023-11-19T15:39:59;14.40;99.90
1411;DHT22;700;51.906;8.404;2023-11-19T15:45:04;14.10;99.90
1411;DHT22;700;51.906;8.404;2023-11-19T15:50:07;14.00;99.90
1411;DHT22;700;51.906;8.404;2023-11-19T15:55:10;14.30;99.90
1411;DHT22;700;51.906;8.404;2023-11-19T16:00:12;14.20;99.90
1411;DHT22;700;51.906;8.404;2023-11-19T16:05:17;14.00;99.90
1411;DHT22;700;51.906;8.404;2023-11-19T16:10:18;14.00;99.90
1411;DHT22;700;51.906;8.404;2023-11-19T16:15:19;13.80;99.90
1411;DHT22;700;51.906;8.404;2023-11-19T16:20:23;13.90;99.90
1411;DHT22;700;51.906;8.404;2023-11-19T16:25:26;13.80;99.90
1411;DHT22;700;51.906;8.404;2023-11-19T16:30:27;13.80;99.90
1411;DHT22;700;51.906;8.404;2023-11-19T16:35:27;13.70;99.90
1411;DHT22;700;51.906;8.404;2023-11-19T16:40:31;13.60;99.90
1411;DHT22;700;51.906;8.404;2023-11-19T16:45:32;13.70;99.90
1411;DHT22;700;51.906;8.404;2023-11-19T16:50:35;13.80;99.90
1411;DHT22;700;51.906;8.404;2023-11-19T16:55:40;13.70;99.90
1411;DHT22;700;51.906;8.404;2023-11-19T17:00:40;13.90;99.90
1411;DHT22;700;51.906;8.404;2023-11-19T17:05:41;14.00;99.90
1411;DHT22;700;51.906;8.404;2023-11-19T17:10:44;14.10;99.90
1411;DHT22;700;51.906;8.404;2023-11-19T17:15:47;14.30;99.90
1411;DHT22;700;51.906;8.404;2023-11-19T17:20:50;14.20;99.90
1411;DHT22;700;51.906;8.404;2023-11-19T17:25:52;14.10;99.90
1411;DHT22;700;51.906;8.404;2023-11-19T17:30:53;14.00;99.90
1411;DHT22;700;51.906;8.404;2023-11-19T17:35:54;14.10;99.90
1411;DHT22;700;51.906;8.404;2023-11-19T17:40:56;14.20;99.90
1411;DHT22;700;51.906;8.404;2023-11-19T17:45:57;14.20;99.90
1411;DHT22;700;51.906;8.404;2023-11-19T17:51:00;14.00;99.90
1411;DHT22;700;51.906;8.404;2023-11-19T17:56:01;13.90;99.90
1411;DHT22;700;51.906;8.404;2023-11-19T18:01:04;13.70;99.90
1411;DHT22;700;51.906;8.404;2023-11-19T18:06:15;13.70;99.90
1411;DHT22;700;51.906;8.404;2023-11-19T18:11:17;13.60;99.90
1411;DHT22;700;51.906;8.404;2023-11-19T18:16:24;13.60;99.90
1411;DHT22;700;51.906;8.404;2023-11-19T18:21:24;13.70;99.90
1411;DHT22;700;51.906;8.404;2023-11-19T18:26:27;13.80;99.90
1411;DHT22;700;51.906;8.404;2023-11-19T18:31:28;13.70;99.90
1411;DHT22;700;51.906;8.404;2023-11-19T18:36:37;13.70;99.90
1411;DHT22;700;51.906;8.404;2023-11-19T18:41:39;13.70;99.90
1411;DHT22;700;51.906;8.404;2023-11-19T18:46:40;13.60;99.90
1411;DHT22;700;51.906;8.404;2023-11-19T18:51:40;13.40;99.90
1411;DHT22;700;51.906;8.404;2023-11-19T18:56:41;13.40;99.90
1411;DHT22;700;51.906;8.404;2023-11-19T19:01:41;13.50;99.90
1411;DHT22;700;51.906;8.404;2023-11-19T19:06:44;13.00;99.90
1411;DHT22;700;51.906;8.404;2023-11-19T19:11:49;13.00;99.90
1411;DHT22;700;51.906;8.404;2023-11-19T19:16:52;13.20;99.90
1411;DHT22;700;51.906;8.404;2023-11-19T19:21:54;13.30;99.90
1411;DHT22;700;51.906;8.404;2023-11-19T19:26:55;13.50;99.90
1411;DHT22;700;51.906;8.404;2023-11-19T19:32:00;13.40;99.90
1411;DHT22;700;51.906;8.404;2023-11-19T19:37:01;13.20;99.90
1411;DHT22;700;51.906;8.404;2023-11-19T19:42:04;13.20;99.90
1411;DHT22;700;51.906;8.404;2023-11-19T19:47:05;13.30;99.90
1411;DHT22;700;51.906;8.404;2023-11-19T19:52:06;13.10;99.90
1411;DHT22;700;51.906;8.404;2023-11-19T19:57:06;12.90;99.90
1411;DHT22;700;51.906;8.404;2023-11-19T20:02:10;12.90;99.90
1411;DHT22;700;51.906;8.404;2023-11-19T20:07:11;12.80;99.90
1411;DHT22;700;51.906;8.404;2023-11-19T20:12:12;12.90;99.90
1411;DHT22;700;51.906;8.404;2023-11-19T20:17:14;12.90;99.90
1411;DHT22;700;51.906;8.404;2023-11-19T20:22:17;12.80;99.90
1411;DHT22;700;51.906;8.404;2023-11-19T20:27:18;12.70;99.90
1411;DHT22;700;51.906;8.404;2023-11-19T20:32:19;12.70;99.90
1411;DHT22;700;51.906;8.404;2023-11-19T20:37:19;12.50;99.90
1411;DHT22;700;51.906;8.404;2023-11-19T20:42:22;12.60;99.90
1411;DHT22;700;51.906;8.404;2023-11-19T20:47:23;12.70;99.90
1411;DHT22;700;51.906;8.404;2023-11-19T20:52:23;12.70;99.90
1411;DHT22;700;51.906;8.404;2023-11-19T20:57:24;12.40;99.90
1411;DHT22;700;51.906;8.404;2023-11-19T21:02:27;12.30;99.90
1411;DHT22;700;51.906;8.404;2023-11-19T21:07:27;12.60;99.90
1411;DHT22;700;51.906;8.404;2023-11-19T21:12:28;12.70;99.90
1411;DHT22;700;51.906;8.404;2023-11-19T21:17:29;12.50;99.90
1411;DHT22;700;51.906;8.404;2023-11-19T21:22:32;12.30;99.90
1411;DHT22;700;51.906;8.404;2023-11-19T21:27:32;12.40;99.90
1411;DHT22;700;51.906;8.404;2023-11-19T21:32:35;12.50;99.90
1411;DHT22;700;51.906;8.404;2023-11-19T21:37:36;12.40;99.90
1411;DHT22;700;51.906;8.404;2023-11-19T21:42:37;12.40;99.90
1411;DHT22;700;51.906;8.404;2023-11-19T21:47:40;12.60;99.90
1411;DHT22;700;51.906;8.404;2023-11-19T21:52:45;12.60;99.90
1411;DHT22;700;51.906;8.404;2023-11-19T21:57:46;12.30;99.90
1411;DHT22;700;51.906;8.404;2023-11-19T22:02:46;12.50;99.90
1411;DHT22;700;51.906;8.404;2023-11-19T22:07:47;12.60;99.90
1411;DHT22;700;51.906;8.404;2023-11-19T22:12:50;12.60;99.90
1411;DHT22;700;51.906;8.404;2023-11-19T22:17:50;12.60;99.90
1411;DHT22;700;51.906;8.404;2023-11-19T22:22:53;12.60;99.90
1411;DHT22;700;51.906;8.404;2023-11-19T22:27:54;12.60;99.90
1411;DHT22;700;51.906;8.404;2023-11-19T22:32:54;12.50;99.90
1411;DHT22;700;51.906;8.404;2023-11-19T22:37:55;12.50;99.90
1411;DHT22;700;51.906;8.404;2023-11-19T22:42:56;12.30;99.90
1411;DHT22;700;51.906;8.404;2023-11-19T22:47:57;12.60;99.90
1411;DHT22;700;51.906;8.404;2023-11-19T22:53:00;12.60;99.90
1411;DHT22;700;51.906;8.404;2023-11-19T22:58:01;12.70;99.90
1411;DHT22;700;51.906;8.404;2023-11-19T23:03:01;12.60;99.90
1411;DHT22;700;51.906;8.404;2023-11-19T23:08:03;12.70;99.90
1411;DHT22;700;51.906;8.404;2023-11-19T23:13:04;12.80;99.90
1411;DHT22;700;51.906;8.404;2023-11-19T23:18:05;12.70;99.90
1411;DHT22;700;51.906;8.404;2023-11-19T23:23:05;12.90;99.90
1411;DHT22;700;51.906;8.404;2023-11-19T23:28:06;13.00;99.90
1411;DHT22;700;51.906;8.404;2023-11-19T23:33:09;13.00;99.90
1411;DHT22;700;51.906;8.404;2023-11-19T23:38:09;13.00;99.90
1411;DHT22;700;51.906;8.404;2023-11-19T23:43:11;12.90;99.90
1411;DHT22;700;51.906;8.404;2023-11-19T23:48:12;13.00;99.90
1411;DHT22;700;51.906;8.404;2023-11-19T23:53:12;13.10;99.90
1411;DHT22;700;51.906;8.404;2023-11-19T23:58:15;12.90;99.90
